Terminal Aerodrome Forecast
Issued by NWS Dodge City, KS

Home | Current Version | Previous Version | Graphics & Text | Print | Product List | Glossary Off
Versions: 1 2 3 4 5 6 7 8 9 10 11 12 13 14 15 16 17 18 19

000
FTUS43 KDDC 140524
TAFDDC
TAF
KDDC 140524Z 1406/1506 09006KT P6SM OVC250 WS020/19045KT
     FM141000 14006KT P6SM VCSH BKN025 WS020/21045KT
     FM141400 16009KT P6SM BKN080
     FM142000 27019G27KT P6SM FEW250
     FM142300 34025G33KT P6SM FEW250=

USA.gov is the U.S. government's official web portal to all federal, state and local government web resources and services.